Gainesville, FL

8:12 AM EST on March 05, 2015 (GMT -0500)
Suburban Heights | Change Station
CLOSE
Current Station
Personal Weather Station
Location: Gainesville, FL
Elevation: 150 ft
Nearby Weather Stations

Elev 150 ft 29.67 °N, 82.39 °W | Updated 13 minutes ago

Clear
Clear
63.7 °F
Feels Like 63.7 °F
N
0.0
Wind Variable Wind from ESE
Gusts 0.0 mph

Today
High -- | Low -- °F
--% Chance of Precip.
Yesterday
High -- | Low -- °F
Precip. -- in
6:51 AM 6:31 PM
Full, 100% visible
Pressure 30.11 in
Visibility 8.0 miles
Clouds Mostly Cloudy 2100 ft
Dew Point 63 °F
Humidity 97%
Rainfall in
Snow Depth Not available.
UV 0 out of 12
Pollen 10.50 out of 12
Air Quality Not available.
Flu Activity Not available.
METAR KGNV 051253Z 00000KT 8SM BKN021 18/18 A3012 RMK AO2 SLP196 T01830178

More Conditions Fewer Conditions

Pressure 30.11 in
Visibility 8.0 miles
Clouds Mostly Cloudy 2100 ft
Dew Point 63 °F
Humidity 97%
Rainfall in
Snow Depth Not available.
UV 0 out of 12
Pollen 10.50 out of 12
Air Quality Not available.
Flu Activity Not available.
METAR KGNV 051253Z 00000KT 8SM BKN021 18/18 A3012 RMK AO2 SLP196 T01830178

More Conditions Fewer Conditions

10-Day Weather Forecast

Almanac

Astronomy

Mar. 05, 2015 Rise Set
Actual Time
Civil Twilight
Nautical Twilight
Astronomical Twilight
Moon
Length of Visible Light
Length of Day
Tomorrow will be .
, % of the Moon is Illuminated

Today's Extremes

State Highs State Lows

Community

WunderPhotos

Upload Photos

1,802,749 photos uploaded!

WunderBlogs® & News

Nearby

Air Quality

  Air Quality AQ Index Pollutant
Not available.

Snow Depth

Station Depth Elevation

Earthquake Activity

City Distance Mag. Time & Date
Minimum magnitude displayed is 2.5.

Coastal Water Temperatures

Place Temperature

Nearby Weather Stations